Time;durP1;ratioP1;P1;durP2;ratioP2;P2;SDS_P1;SDS_P2;PMS_P1;PMS_P2;Temp;Humidity;BMP_temperature;BMP_pressure;BME280_temperature;BME280_humidity;BME280_pressure;Samples;Min_cycle;Max_cycle;Signal;HPM_P1;HPM_P2
2023/03/07 00:02:07;;;;;;;14.75;6.40;;;;;;;2.36;100.00;97627.44;4963851;28;20029;-76
2023/03/07 00:04:32;;;;;;;11.85;5.70;;;;;;;2.42;100.00;97638.19;4945670;28;20085;-76
2023/03/07 00:06:57;;;;;;;12.60;6.13;;;;;;;2.45;100.00;97639.69;4951984;28;20404;-74
2023/03/07 00:09:23;;;;;;;13.40;6.10;;;;;;;2.41;100.00;97635.69;4951885;28;20115;-76
2023/03/07 00:11:49;;;;;;;15.48;6.40;;;;;;;2.49;100.00;97634.81;4954845;28;20039;-77
2023/03/07 00:14:14;;;;;;;14.27;6.78;;;;;;;2.58;100.00;97637.22;4967235;28;20035;-77
2023/03/07 00:16:39;;;;;;;11.32;5.93;;;;;;;2.61;100.00;97646.72;4952196;28;20535;-76
2023/03/07 00:19:06;;;;;;;13.05;5.93;;;;;;;2.60;100.00;97637.88;4949869;28;20040;-77
2023/03/07 00:21:32;;;;;;;14.25;6.57;;;;;;;2.52;100.00;97626.47;4948926;28;20028;-76
2023/03/07 00:23:57;;;;;;;14.80;7.30;;;;;;;2.47;100.00;97628.84;4975330;28;20396;-76
2023/03/07 00:26:25;;;;;;;16.45;6.40;;;;;;;2.50;100.00;97628.47;4972364;28;20112;-77
2023/03/07 00:28:52;;;;;;;13.20;6.57;;;;;;;2.42;100.00;97632.88;4969110;28;20029;-76
2023/03/07 00:31:18;;;;;;;14.90;6.63;;;;;;;2.51;100.00;97633.63;4959051;28;20481;-76
2023/03/07 00:33:44;;;;;;;18.02;7.80;;;;;;;2.33;100.00;97603.75;4951602;28;20038;-76
2023/03/07 00:36:29;;;;;;;13.18;6.40;;;;;;;2.47;100.00;97621.66;4967155;28;20023;-76
2023/03/07 00:38:54;;;;;;;13.70;6.63;;;;;;;2.36;100.00;97614.09;4949869;28;20495;-76
2023/03/07 00:41:25;;;;;;;15.45;6.60;;;;;;;2.36;100.00;97611.41;4956502;28;20105;-76
2023/03/07 00:43:52;;;;;;;13.77;6.70;;;;;;;2.34;100.00;97613.44;4946917;29;20647;-76
2023/03/07 00:46:20;;;;;;;14.80;6.25;;;;;;;2.41;100.00;97625.03;4951713;28;20459;-77
2023/03/07 00:48:45;;;;;;;12.95;6.40;;;;;;;2.27;100.00;97601.81;4969550;28;20031;-76
2023/03/07 00:51:13;;;;;;;17.35;6.60;;;;;;;2.32;100.00;97616.28;4950461;28;20033;-74
2023/03/07 00:53:39;;;;;;;16.45;6.88;;;;;;;2.27;100.00;97599.97;4956369;28;20031;-75
2023/03/07 00:56:16;;;;;;;15.18;6.50;;;;;;;2.34;100.00;97613.44;4992475;28;20059;-75
2023/03/07 00:58:42;;;;;;;14.60;7.03;;;;;;;2.31;100.00;97600.47;4945518;29;20023;-74
2023/03/07 01:01:09;;;;;;;13.13;6.22;;;;;;;2.33;100.00;97596.59;4952262;28;20118;-74
2023/03/07 01:03:36;;;;;;;16.23;7.00;;;;;;;2.29;100.00;97595.28;4950844;28;20019;-74
2023/03/07 01:06:04;;;;;;;14.10;5.90;;;;;;;2.31;100.00;97606.63;4952429;28;20031;-74
2023/03/07 01:08:30;;;;;;;15.40;6.15;;;;;;;2.35;100.00;97605.22;4951805;28;20034;-74
2023/03/07 01:11:00;;;;;;;16.30;7.15;;;;;;;2.29;100.00;97597.97;4951693;28;20027;-75
2023/03/07 01:13:26;;;;;;;13.73;6.63;;;;;;;2.26;100.00;97590.31;4955716;28;20031;-75
2023/03/07 01:15:52;;;;;;;15.40;7.10;;;;;;;2.30;100.00;97599.59;4954829;28;20515;-75
2023/03/07 01:18:17;;;;;;;15.63;7.13;;;;;;;2.33;100.00;97599.25;4983685;28;20118;-74
2023/03/07 01:20:42;;;;;;;13.95;6.03;;;;;;;2.30;100.00;97590.78;4955918;28;20118;-74
2023/03/07 01:23:08;;;;;;;13.32;6.15;;;;;;;2.17;100.00;97572.69;4963644;28;20046;-74
2023/03/07 01:25:38;;;;;;;14.40;6.65;;;;;;;2.32;100.00;97592.25;5013347;28;20019;-77
2023/03/07 01:28:04;;;;;;;13.35;6.70;;;;;;;2.38;100.00;97599.56;4946681;28;20176;-75
2023/03/07 01:30:29;;;;;;;15.05;6.43;;;;;;;2.35;100.00;97589.22;4964789;28;20027;-75
2023/03/07 01:32:58;;;;;;;16.55;6.50;;;;;;;2.32;100.00;97588.75;4970221;28;20011;-75
2023/03/07 01:35:24;;;;;;;;;;;;;;;2.36;100.00;97596.22;4972398;28;20038;-75
2023/03/07 01:37:51;;;;;;;15.88;6.35;;;;;;;2.36;100.00;97596.22;4978425;28;19903;-75
2023/03/07 01:40:17;;;;;;;14.82;6.30;;;;;;;2.25;100.00;97569.97;4961511;28;20015;-75
2023/03/07 01:42:42;;;;;;;13.90;6.45;;;;;;;2.34;100.00;97581.41;4974060;28;20389;-75
2023/03/07 01:45:10;;;;;;;14.90;6.65;;;;;;;2.38;100.00;97591.53;4973496;28;20049;-75
2023/03/07 01:47:36;;;;;;;14.00;6.75;;;;;;;2.25;100.00;97572.63;4964937;28;20062;-75
2023/03/07 01:50:05;;;;;;;15.50;6.97;;;;;;;2.25;100.00;97575.28;4974198;28;20168;-75
2023/03/07 01:52:35;;;;;;;14.55;6.32;;;;;;;2.22;100.00;97562.31;4967462;28;20704;-78
2023/03/07 01:55:23;;;;;;;15.07;6.55;;;;;;;2.19;100.00;97570.69;4971264;28;20019;-77
2023/03/07 01:57:50;;;;;;;13.57;6.07;;;;;;;2.15;100.00;97567.56;4958742;28;20072;-77
2023/03/07 02:00:25;;;;;;;14.93;6.38;;;;;;;2.08;100.00;97560.47;4959674;28;20143;-77
2023/03/07 02:03:01;;;;;;;12.48;6.13;;;;;;;2.16;100.00;97563.06;4949362;28;20501;-77
2023/03/07 02:05:33;;;;;;;14.23;6.50;;;;;;;2.19;100.00;97573.34;4951387;28;20054;-77
2023/03/07 02:08:01;;;;;;;13.75;6.32;;;;;;;2.11;100.00;97555.59;4946539;28;20027;-77
2023/03/07 02:10:28;;;;;;;17.30;7.32;;;;;;;2.05;100.00;97545.66;4950377;28;20365;-77
2023/03/07 02:12:54;;;;;;;14.60;6.88;;;;;;;2.15;100.00;97545.41;4960526;28;20024;-78
2023/03/07 02:15:19;;;;;;;13.80;6.68;;;;;;;2.18;100.00;97545.03;4953546;28;20038;-77
2023/03/07 02:17:45;;;;;;;13.50;6.07;;;;;;;2.14;100.00;97541.06;5040502;28;20023;-77
2023/03/07 02:20:34;;;;;;;15.88;7.03;;;;;;;2.15;100.00;97530.22;4950128;28;20023;-77
2023/03/07 02:23:00;;;;;;;13.23;6.30;;;;;;;2.20;100.00;97537.66;4961494;28;20477;-77
2023/03/07 02:25:45;;;;;;;11.48;5.57;;;;;;;2.27;100.00;97538.59;4971773;28;20098;-74
2023/03/07 02:28:13;;;;;;;14.05;6.35;;;;;;;2.32;100.00;97557.56;4941114;28;20030;-74
2023/03/07 02:30:55;;;;;;;13.18;6.43;;;;;;;2.32;100.00;97538.06;4957997;28;20027;-75
2023/03/07 02:33:23;;;;;;;14.80;7.30;;;;;;;2.24;100.00;97527.47;4959424;28;20405;-75
2023/03/07 02:35:53;;;;;;;15.65;6.95;;;;;;;2.33;100.00;97531.69;4950906;28;20035;-75
2023/03/07 02:38:20;;;;;;;14.85;7.32;;;;;;;2.34;100.00;97530.69;4948725;28;20023;-75
2023/03/07 02:40:45;;;;;;;15.75;6.78;;;;;;;2.34;100.00;97544.03;4950130;28;20165;-75
2023/03/07 02:43:11;;;;;;;16.15;7.32;;;;;;;2.23;100.00;97526.63;4952504;28;20509;-75
2023/03/07 02:45:36;;;;;;;17.65;7.40;;;;;;;2.27;100.00;97535.09;4953682;28;20023;-75
2023/03/07 02:48:02;;;;;;;15.13;7.28;;;;;;;2.25;100.00;97523.78;4963260;23;20456;-54
2023/03/07 02:50:27;;;;;;;15.45;7.28;;;;;;;2.12;100.00;97521.72;4955683;28;20047;-54
2023/03/07 02:52:53;;;;;;;18.23;7.90;;;;;;;2.06;100.00;97530.47;4936261;28;20123;-55
2023/03/07 02:55:18;;;;;;;24.15;7.93;;;;;;;1.93;100.00;97525.72;4937042;28;20028;-54
2023/03/07 02:57:43;;;;;;;20.55;8.50;;;;;;;1.89;100.00;97540.47;4949173;29;20467;-54
2023/03/07 03:00:11;;;;;;;17.25;7.47;;;;;;;1.84;100.00;97527.66;4964362;28;20050;-55
2023/03/07 03:02:36;;;;;;;15.02;7.22;;;;;;;1.83;100.00;97519.81;4950974;28;20085;-55
2023/03/07 03:05:03;;;;;;;16.98;8.05;;;;;;;1.79;100.00;97516.69;4953734;28;20027;-55
2023/03/07 03:07:28;;;;;;;18.88;8.68;;;;;;;1.68;100.00;97504.63;4953059;29;20110;-55
2023/03/07 03:09:54;;;;;;;17.55;8.25;;;;;;;1.79;100.00;97506.03;4949504;28;20139;-55
2023/03/07 03:12:19;;;;;;;19.85;8.02;;;;;;;1.85;100.00;97513.28;4951533;29;20032;-55
2023/03/07 03:14:44;;;;;;;14.05;7.00;;;;;;;1.95;100.00;97513.88;4967681;28;20077;-55
2023/03/07 03:17:10;;;;;;;18.13;9.00;;;;;;;1.94;100.00;97511.41;4951353;29;20083;-55
2023/03/07 03:19:35;;;;;;;16.02;7.88;;;;;;;1.91;100.00;97507.25;4966274;28;20535;-55
2023/03/07 03:22:00;;;;;;;21.98;8.38;;;;;;;1.91;100.00;97512.59;4944398;29;20027;-55
2023/03/07 03:24:26;;;;;;;15.98;7.45;;;;;;;1.93;100.00;97510.56;4966171;28;20398;-55
2023/03/07 03:26:55;;;;;;;17.98;8.45;;;;;;;1.92;100.00;97508.91;4950783;28;20118;-55
2023/03/07 03:29:20;;;;;;;15.80;7.47;;;;;;;1.93;100.00;97509.72;4962432;28;20027;-55
2023/03/07 03:31:46;;;;;;;16.77;7.63;;;;;;;1.96;100.00;97506.69;4947587;28;20028;-55
2023/03/07 03:34:12;;;;;;;19.98;7.97;;;;;;;1.92;100.00;97505.41;4952503;28;20074;-55
2023/03/07 03:36:38;;;;;;;17.65;7.57;;;;;;;1.88;100.00;97507.59;4967121;28;20093;-55
2023/03/07 03:39:05;;;;;;;16.98;7.82;;;;;;;1.93;100.00;97510.56;4955908;28;20031;-55
2023/03/07 03:41:31;;;;;;;16.63;8.38;;;;;;;1.87;100.00;97503.28;4967576;28;20106;-55
2023/03/07 03:43:56;;;;;;;16.65;7.18;;;;;;;1.82;100.00;97505.66;4951175;28;20042;-55
2023/03/07 03:46:22;;;;;;;14.52;6.97;;;;;;;1.83;100.00;97512.66;4941657;28;20031;-55
2023/03/07 03:48:54;;;;;;;20.25;7.13;;;;;;;1.85;100.00;97507.13;4950673;28;20019;-55
2023/03/07 03:51:23;;;;;;;18.23;8.10;;;;;;;1.88;100.00;97502.25;4963962;28;20027;-55
2023/03/07 03:53:49;;;;;;;21.45;8.20;;;;;;;1.89;100.00;97497.78;4962867;28;20035;-55
2023/03/07 03:56:19;;;;;;;15.25;6.97;;;;;;;1.92;100.00;97492.09;4941387;28;20031;-54
2023/03/07 03:58:50;;;;;;;11.98;6.55;;;;;;;1.92;100.00;97497.41;4966888;28;20055;-54
2023/03/07 04:01:17;;;;;;;16.92;7.32;;;;;;;1.92;100.00;97492.91;4949299;29;20039;-54
2023/03/07 04:03:45;;;;;;;14.23;6.25;;;;;;;1.98;100.00;97486.00;4953244;29;20106;-54
2023/03/07 04:06:20;;;;;;;17.65;7.60;;;;;;;1.98;100.00;97484.16;4943273;28;20039;-54
2023/03/07 04:08:47;;;;;;;14.02;6.78;;;;;;;1.99;100.00;97487.66;4946083;28;20110;-54
2023/03/07 04:11:13;;;;;;;17.63;7.05;;;;;;;1.96;100.00;97475.53;4949460;28;20046;-55
2023/03/07 04:13:38;;;;;;;10.93;6.10;;;;;;;2.02;100.00;97481.13;4965670;28;20027;-54
2023/03/07 04:16:04;;;;;;;13.82;6.60;;;;;;;2.06;100.00;97477.09;4949561;28;20100;-55
2023/03/07 04:18:39;;;;;;;15.35;6.95;;;;;;;2.08;100.00;97475.09;4951639;28;20039;-55
2023/03/07 04:21:06;;;;;;;14.60;6.32;;;;;;;2.09;100.00;97466.88;4954119;23;20101;-61
2023/03/07 04:23:34;;;;;;;19.80;6.35;;;;;;;2.11;100.00;97478.22;4998045;28;20028;-61
2023/03/07 04:26:01;;;;;;;10.23;4.87;;;;;;;2.11;100.00;97475.53;4948514;28;20042;-61
2023/03/07 04:28:45;;;;;;;18.00;6.50;;;;;;;2.14;100.00;97469.03;4939848;28;20024;-61
2023/03/07 04:31:16;;;;;;;16.75;6.63;;;;;;;2.13;100.00;97470.88;4933533;28;20510;-61
2023/03/07 04:33:42;;;;;;;14.38;6.78;;;;;;;2.16;100.00;97473.16;4924083;28;20086;-61
2023/03/07 04:36:09;;;;;;;14.70;6.53;;;;;;;2.19;100.00;97455.97;4939057;28;20064;-61
2023/03/07 04:38:37;;;;;;;12.55;6.03;;;;;;;2.18;100.00;97455.13;4940368;29;20390;-61
2023/03/07 04:41:04;;;;;;;12.82;6.10;;;;;;;2.20;100.00;97457.59;4938990;28;20059;-61
2023/03/07 04:43:30;;;;;;;12.45;6.55;;;;;;;2.24;100.00;97466.91;4942561;28;20107;-61
2023/03/07 04:45:55;;;;;;;16.42;6.30;;;;;;;2.24;100.00;97461.56;4961715;28;20522;-61
2023/03/07 04:48:21;;;;;;;12.73;6.53;;;;;;;2.22;100.00;97460.91;4942587;29;20035;-61
2023/03/07 04:50:51;;;;;;;16.60;6.88;;;;;;;2.27;100.00;97457.72;4925983;28;20050;-60
2023/03/07 04:53:17;;;;;;;13.85;6.50;;;;;;;2.24;100.00;97456.25;4930834;28;20118;-61
2023/03/07 04:55:43;;;;;;;14.98;6.25;;;;;;;2.26;100.00;97454.22;4931126;28;20114;-61
2023/03/07 04:58:11;;;;;;;14.32;6.97;;;;;;;2.26;100.00;97451.56;4930530;28;20081;-61
2023/03/07 05:00:39;;;;;;;15.52;6.38;;;;;;;2.26;100.00;97446.22;4933659;28;20027;-62
2023/03/07 05:03:05;;;;;;;16.75;7.30;;;;;;;2.26;100.00;97446.22;4944513;28;20031;-62
2023/03/07 05:05:30;;;;;;;15.23;7.20;;;;;;;2.27;100.00;97444.38;4954122;28;20026;-62
2023/03/07 05:07:56;;;;;;;15.60;6.35;;;;;;;2.28;100.00;97435.34;4930028;29;20032;-61
2023/03/07 05:10:21;;;;;;;17.95;6.95;;;;;;;2.30;100.00;97436.00;4928985;29;20070;-62
2023/03/07 05:12:46;;;;;;;19.00;7.80;;;;;;;2.30;100.00;97444.00;4930628;28;20035;-61
2023/03/07 05:15:15;;;;;;;14.25;6.18;;;;;;;2.32;100.00;97444.66;4932005;28;20028;-62
2023/03/07 05:17:55;;;;;;;15.23;6.05;;;;;;;2.32;100.00;97428.63;4934946;29;20062;-62
2023/03/07 05:20:22;;;;;;;13.65;7.13;;;;;;;2.32;100.00;97434.78;4947054;23;20039;-77
2023/03/07 05:22:47;;;;;;;14.57;6.85;;;;;;;2.25;100.00;97423.19;4962580;28;20041;-75
2023/03/07 05:25:13;;;;;;;12.95;6.43;;;;;;;2.35;100.00;97429.09;4950885;28;20024;-74
2023/03/07 05:27:39;;;;;;;14.65;7.05;;;;;;;2.37;100.00;97432.41;4986966;28;20029;-72
2023/03/07 05:30:05;;;;;;;14.43;6.88;;;;;;;2.35;100.00;97415.72;5053129;28;20111;-73
2023/03/07 05:32:31;;;;;;;13.10;6.82;;;;;;;2.52;100.00;97407.53;5053838;28;20025;-77
2023/03/07 05:34:56;;;;;;;10.85;5.65;;;;;;;2.59;100.00;97416.44;5054648;28;20007;-75
2023/03/07 05:37:21;;;;;;;13.63;6.55;;;;;;;2.44;100.00;97392.47;5066368;28;20041;-77
2023/03/07 05:39:47;;;;;;;11.73;6.57;;;;;;;2.62;100.00;97403.56;5045844;28;20111;-75
2023/03/07 05:42:12;;;;;;;12.15;6.30;;;;;;;2.64;100.00;97400.69;5050158;28;20024;-74
2023/03/07 05:44:37;;;;;;;11.40;5.88;;;;;;;2.63;100.00;97404.38;5051594;28;20475;-75
2023/03/07 05:47:03;;;;;;;13.75;5.88;;;;;;;2.71;100.00;97412.28;5060230;28;20029;-73
2023/03/07 05:49:28;;;;;;;14.02;6.68;;;;;;;2.76;100.00;97409.88;5050415;28;20035;-75
2023/03/07 05:51:53;;;;;;;13.30;6.20;;;;;;;2.74;100.00;97400.41;5053101;28;20025;-77
2023/03/07 05:54:34;;;;;;;13.77;7.03;;;;;;;2.82;100.00;97411.78;5077846;28;20037;-79
2023/03/07 05:56:59;;;;;;;14.48;5.82;;;;;;;2.81;100.00;97412.81;5034931;28;20414;-79
2023/03/07 05:59:25;;;;;;;11.98;6.30;;;;;;;2.90;100.00;97418.84;5064366;28;20045;-79
2023/03/07 06:01:51;;;;;;;16.48;6.40;;;;;;;2.76;100.00;97401.88;5045733;28;20506;-72
2023/03/07 06:04:16;;;;;;;13.07;6.32;;;;;;;2.81;100.00;97388.78;5057079;28;20135;-74
2023/03/07 06:06:41;;;;;;;12.45;6.68;;;;;;;2.93;100.00;97404.28;5063505;28;20025;-78
2023/03/07 06:16:07;;;;;;;12.18;5.70;;;;;;;3.04;100.00;97401.16;5014464;28;20132;-77
2023/03/07 06:18:32;;;;;;;13.98;5.93;;;;;;;2.91;100.00;97371.59;4996436;28;20069;-76
2023/03/07 06:21:00;;;;;;;14.85;6.45;;;;;;;3.02;100.00;97350.56;5029314;28;20145;-76
2023/03/07 06:23:30;;;;;;;13.77;6.63;;;;;;;3.14;100.00;97390.13;5050276;28;20028;-76
2023/03/07 06:25:55;;;;;;;15.02;6.30;;;;;;;2.98;100.00;97359.97;5047375;28;20030;-75
2023/03/07 06:28:22;;;;;;;15.50;6.18;;;;;;;3.14;100.00;97385.59;5050223;28;20558;-76
2023/03/07 06:30:48;;;;;;;13.18;5.88;;;;;;;3.09;100.00;97388.03;5048442;28;20075;-75
2023/03/07 06:33:13;;;;;;;14.00;6.30;;;;;;;3.04;100.00;97369.91;5048406;28;20029;-74
2023/03/07 06:35:39;;;;;;;13.95;6.40;;;;;;;2.97;100.00;97378.88;5052898;28;20079;-80
2023/03/07 06:38:05;;;;;;;16.67;7.10;;;;;;;2.90;100.00;97381.47;5054733;28;20025;-80
2023/03/07 06:40:31;;;;;;;16.45;6.93;;;;;;;2.85;100.00;97379.34;5053026;28;20070;-77
2023/03/07 06:42:56;;;;;;;14.38;7.75;;;;;;;2.81;100.00;97382.63;5070065;28;20513;-78
2023/03/07 06:45:21;;;;;;;13.73;7.05;;;;;;;2.70;100.00;97353.72;5050028;28;20051;-77
2023/03/07 06:47:47;;;;;;;15.10;6.53;;;;;;;2.90;100.00;97397.50;5053170;28;20107;-78
2023/03/07 06:50:12;;;;;;;14.90;6.03;;;;;;;2.84;100.00;97385.72;5044322;28;20022;-77
2023/03/07 06:52:37;;;;;;;15.07;6.65;;;;;;;2.75;100.00;97378.00;5037134;28;20095;-76
2023/03/07 06:55:03;;;;;;;15.10;6.50;;;;;;;2.91;100.00;97395.63;5038834;28;20029;-78
2023/03/07 06:57:28;;;;;;;15.65;7.13;;;;;;;2.73;100.00;97372.88;5064640;28;20037;-76
2023/03/07 06:59:54;;;;;;;15.20;6.80;;;;;;;2.89;100.00;97398.53;5053462;28;20021;-73
2023/03/07 07:02:19;;;;;;;17.17;7.55;;;;;;;2.87;100.00;97400.53;5067043;28;20036;-74
2023/03/07 07:04:45;;;;;;;14.20;6.70;;;;;;;2.92;100.00;97414.16;5057740;28;20409;-74
2023/03/07 07:07:10;;;;;;;21.88;7.50;;;;;;;2.71;100.00;97374.91;5051268;28;20032;-76
2023/03/07 07:09:35;;;;;;;15.98;7.18;;;;;;;2.96;100.00;97409.25;5054290;28;20112;-80
2023/03/07 07:12:01;;;;;;;16.38;7.18;;;;;;;2.96;100.00;97393.22;5035472;28;20107;-80
2023/03/07 07:14:26;;;;;;;16.67;7.97;;;;;;;3.01;100.00;97390.81;5038186;28;20029;-75
2023/03/07 07:16:51;;;;;;;16.60;6.18;;;;;;;3.13;100.00;97389.31;5057405;28;20036;-80
2023/03/07 07:19:17;;;;;;;12.75;6.60;;;;;;;3.11;100.00;97377.97;5073798;28;20060;-79
2023/03/07 07:21:43;;;;;;;13.10;6.65;;;;;;;3.06;100.00;97372.38;5084344;28;20092;-78
2023/03/07 07:24:11;;;;;;;13.95;6.55;;;;;;;3.34;100.00;97401.84;5057160;28;20508;-79
2023/03/07 07:26:37;;;;;;;11.75;4.68;;;;;;;2.93;100.00;97340.19;5057460;28;20025;-79
2023/03/07 07:29:05;;;;;;;15.32;6.97;;;;;;;3.02;100.00;97328.38;5067277;28;20060;-79
2023/03/07 07:31:37;;;;;;;14.65;6.57;;;;;;;3.46;100.00;97372.75;5078419;28;20100;-78
2023/03/07 07:34:02;;;;;;;14.00;6.55;;;;;;;3.70;100.00;97390.22;5074604;28;20471;-78
2023/03/07 07:36:28;;;;;;;17.45;6.60;;;;;;;3.82;100.00;97379.78;5065843;28;20053;-79
2023/03/07 07:38:54;;;;;;;12.90;6.32;;;;;;;3.90;100.00;97374.28;5059159;28;20075;-73
2023/03/07 07:44:42;;;;;;;13.80;6.60;;;;;;;3.64;100.00;97316.09;5079175;28;20047;-81
2023/03/07 07:47:19;;;;;;;19.77;6.82;;;;;;;4.19;100.00;97383.91;5102482;28;20123;-82
2023/03/07 07:49:45;;;;;;;13.38;6.63;;;;;;;3.99;100.00;97350.88;5093517;28;20032;-77
2023/03/07 07:52:11;;;;;;;15.38;6.72;;;;;;;4.01;100.00;97309.53;5085542;28;20112;-79
2023/03/07 07:54:37;;;;;;;14.32;6.63;;;;;;;4.61;100.00;97398.97;5063136;28;20033;-79
2023/03/07 07:57:03;;;;;;;12.45;6.25;;;;;;;3.97;100.00;97267.31;5060019;28;20449;-79
2023/03/07 07:59:30;;;;;;;13.82;6.78;;;;;;;4.94;100.00;97390.19;5057571;28;20025;-78
2023/03/07 08:01:59;;;;;;;18.10;6.70;;;;;;;4.11;100.00;97280.56;5039198;28;20617;-78
2023/03/07 08:04:24;;;;;;;16.50;6.57;;;;;;;4.59;100.00;97342.09;5053640;28;20032;-78
2023/03/07 08:06:51;;;;;;;10.43;6.13;;;;;;;4.69;100.00;97383.72;5035771;28;20037;-76
2023/03/07 08:09:16;;;;;;;14.02;6.93;;;;;;;4.66;100.00;97386.81;5052849;28;20029;-76
2023/03/07 08:11:41;;;;;;;13.50;6.28;;;;;;;4.87;100.00;97359.03;5055678;28;20378;-77
2023/03/07 08:14:07;;;;;;;15.77;6.93;;;;;;;5.24;100.00;97371.91;5070074;28;20045;-79
2023/03/07 08:16:32;;;;;;;15.20;6.68;;;;;;;5.49;100.00;97372.13;5059701;28;20029;-78
2023/03/07 08:18:57;;;;;;;15.95;6.53;;;;;;;6.29;100.00;97373.91;5052675;28;20475;-75
2023/03/07 08:21:24;;;;;;;11.77;5.57;;;;;;;6.64;100.00;97377.09;5054196;28;20505;-77
2023/03/07 08:23:49;;;;;;;14.85;6.72;;;;;;;6.93;100.00;97359.56;5059334;28;20021;-78
2023/03/07 08:26:16;;;;;;;11.73;6.47;;;;;;;6.84;100.00;97360.03;5071617;28;20036;-77
2023/03/07 08:28:41;;;;;;;13.27;6.63;;;;;;;7.27;97.71;97343.22;5043183;28;20025;-73
2023/03/07 08:31:10;;;;;;;15.13;7.07;;;;;;;6.95;99.55;97362.88;5064456;28;20121;-77
2023/03/07 08:33:35;;;;;;;11.20;5.88;;;;;;;7.19;96.99;97371.22;5047719;28;20032;-77
2023/03/07 08:36:01;;;;;;;13.07;6.03;;;;;;;7.42;95.39;97359.88;5058115;28;20032;-77
2023/03/07 08:38:26;;;;;;;14.88;6.43;;;;;;;7.33;96.83;97336.97;5052873;28;20078;-76
2023/03/07 08:40:52;;;;;;;12.45;6.28;;;;;;;7.11;93.72;97333.81;5047720;28;20032;-75
2023/03/07 08:43:17;;;;;;;15.25;6.32;;;;;;;6.44;95.26;97334.16;5052803;28;20037;-75
2023/03/07 08:45:42;;;;;;;11.98;5.72;;;;;;;6.89;95.65;97346.78;5058951;28;20028;-76
2023/03/07 08:48:08;;;;;;;14.43;6.60;;;;;;;6.70;95.41;97352.03;5057022;28;20028;-75
2023/03/07 08:50:34;;;;;;;9.75;5.65;;;;;;;7.20;93.90;97344.13;5045273;28;20041;-75
2023/03/07 08:52:59;;;;;;;12.30;5.82;;;;;;;6.99;89.92;97352.50;5030857;23;20053;-68
2023/03/07 08:55:25;;;;;;;20.00;6.28;;;;;;;7.82;85.20;97340.69;4945290;28;20092;-68
2023/03/07 08:57:50;;;;;;;9.60;5.53;;;;;;;8.48;79.97;97345.41;4958730;28;20032;-68
2023/03/07 09:00:16;;;;;;;10.43;4.95;;;;;;;8.97;76.75;97343.53;4956137;28;20028;-68
2023/03/07 09:02:42;;;;;;;14.10;5.22;;;;;;;8.74;77.10;97344.25;4965961;28;20704;-68
2023/03/07 09:05:08;;;;;;;9.02;5.18;;;;;;;8.36;73.72;97336.41;4992865;28;20074;-68
2023/03/07 09:07:33;;;;;;;14.48;5.82;;;;;;;8.53;74.86;97333.94;4962653;28;20062;-68
2023/03/07 09:09:59;;;;;;;7.60;4.18;;;;;;;8.73;72.41;97325.63;4959675;28;20026;-68
2023/03/07 09:12:24;;;;;;;6.70;4.28;;;;;;;8.48;69.94;97344.56;4943855;28;20042;-69
2023/03/07 09:14:53;;;;;;;11.25;4.03;;;;;;;8.11;69.15;97334.59;4947535;28;20119;-68
2023/03/07 09:17:19;;;;;;;11.23;4.25;;;;;;;8.72;66.99;97334.72;4938633;28;20032;-68
2023/03/07 09:19:44;;;;;;;11.32;4.60;;;;;;;8.77;66.24;97335.69;4949930;28;20082;-68
2023/03/07 09:22:09;;;;;;;8.45;4.40;;;;;;;8.95;64.64;97342.09;4949695;28;20378;-69
2023/03/07 09:24:35;;;;;;;10.32;4.63;;;;;;;7.85;65.44;97321.41;4950228;28;20029;-69
2023/03/07 09:27:00;;;;;;;7.25;4.10;;;;;;;7.27;67.79;97332.47;4946567;28;20100;-69
2023/03/07 09:29:25;;;;;;;7.13;4.15;;;;;;;7.08;69.61;97334.25;4955973;28;20027;-67
2023/03/07 09:31:51;;;;;;;7.65;4.43;;;;;;;7.61;69.16;97326.59;4960065;28;20421;-67
2023/03/07 09:34:16;;;;;;;8.68;4.72;;;;;;;7.20;71.22;97325.28;4958897;28;20038;-69
2023/03/07 09:36:43;;;;;;;9.00;4.25;;;;;;;7.14;70.54;97328.81;4932583;29;20038;-66
2023/03/07 09:39:13;;;;;;;8.50;4.30;;;;;;;7.29;70.42;97330.41;4949258;29;20020;-69
2023/03/07 09:41:47;;;;;;;9.73;4.72;;;;;;;7.41;69.47;97331.31;4957072;28;20122;-69
2023/03/07 09:44:35;;;;;;;12.63;4.05;;;;;;;7.88;67.52;97319.06;4992519;28;20025;-69
2023/03/07 09:47:09;;;;;;;9.35;4.18;;;;;;;8.06;66.10;97320.16;4956010;28;20501;-69
2023/03/07 09:49:51;;;;;;;6.47;3.72;;;;;;;8.63;64.66;97314.53;4945546;28;20085;-68
2023/03/07 09:52:20;;;;;;;8.07;3.50;;;;;;;7.93;65.21;97323.81;4958115;28;20486;-69
2023/03/07 09:54:54;;;;;;;7.20;3.95;;;;;;;7.45;64.59;97317.22;4945979;28;20532;-69
2023/03/07 09:57:24;;;;;;;7.93;3.72;;;;;;;7.17;65.35;97314.94;4940836;28;20031;-69
2023/03/07 10:00:05;;;;;;;6.45;3.67;;;;;;;7.16;66.27;97321.38;4967104;28;20500;-67
2023/03/07 10:02:50;;;;;;;8.15;4.13;;;;;;;6.79;66.01;97321.19;4957124;28;20146;-66
2023/03/07 10:05:38;;;;;;;8.52;3.85;;;;;;;6.38;66.81;97321.59;4996558;28;20031;-67
2023/03/07 10:08:04;;;;;;;7.47;3.70;;;;;;;6.33;68.23;97327.59;4971163;28;20035;-68
2023/03/07 10:10:43;;;;;;;8.82;3.55;;;;;;;6.57;68.67;97331.41;4966948;28;20066;-68
2023/03/07 10:13:32;;;;;;;9.13;4.50;;;;;;;6.23;69.09;97327.22;4950716;28;20035;-67
2023/03/07 10:16:08;;;;;;;6.72;3.78;;;;;;;6.23;70.61;97327.22;4950419;28;20502;-68
2023/03/07 10:21:39;;;;;;;7.30;3.67;;;;;;;6.32;71.09;97315.22;4998193;23;20037;-68
2023/03/07 10:24:23;;;;;;;8.25;3.33;;;;;;;6.36;70.71;97327.16;4961183;28;20096;-68
2023/03/07 10:27:03;;;;;;;10.70;3.75;;;;;;;6.42;71.07;97308.56;4921315;29;20032;-68
2023/03/07 10:29:35;;;;;;;6.40;3.90;;;;;;;6.34;70.56;97313.16;4931621;28;20101;-69
2023/03/07 10:32:27;;;;;;;6.82;3.80;;;;;;;6.05;71.07;97302.91;4934922;28;20044;-68
2023/03/07 10:35:01;;;;;;;7.13;3.55;;;;;;;6.20;72.31;97313.41;4929588;29;20040;-69
2023/03/07 10:37:40;;;;;;;9.60;4.18;;;;;;;6.25;71.42;97309.03;4925155;28;20035;-69
2023/03/07 10:40:13;;;;;;;6.63;3.55;;;;;;;6.30;71.37;97306.53;4931084;28;20068;-69
2023/03/07 10:42:39;;;;;;;9.60;4.20;;;;;;;6.29;69.58;97294.16;4928667;28;20039;-69
2023/03/07 10:45:05;;;;;;;9.63;3.83;;;;;;;6.29;69.87;97304.91;4930934;28;20035;-69
2023/03/07 10:47:31;;;;;;;7.72;4.07;;;;;;;6.48;70.16;97296.97;4925245;29;20048;-69
2023/03/07 10:50:28;;;;;;;6.63;3.55;;;;;;;6.21;68.51;97297.09;4946781;28;20019;-69
2023/03/07 10:53:00;;;;;;;5.82;3.38;;;;;;;6.25;68.20;97298.31;4933396;29;20126;-69
2023/03/07 10:55:38;;;;;;;6.88;2.90;;;;;;;6.32;68.04;97295.59;4928731;28;20387;-69
2023/03/07 10:58:26;;;;;;;6.00;2.75;;;;;;;5.90;67.33;97303.97;4928459;29;20141;-68
2023/03/07 11:01:07;;;;;;;8.93;2.55;;;;;;;5.91;68.42;97297.56;4927895;28;20063;-69
2023/03/07 11:03:49;;;;;;;5.15;3.08;;;;;;;5.87;68.57;97284.78;4949894;28;20475;-68
2023/03/07 11:06:37;;;;;;;9.88;3.60;;;;;;;5.87;67.54;97300.91;4934021;29;20048;-69
2023/03/07 11:09:15;;;;;;;9.27;3.15;;;;;;;5.89;66.61;97290.75;4935234;28;20084;-69
2023/03/07 11:11:52;;;;;;;7.60;3.25;;;;;;;5.65;66.08;97282.34;4923071;28;20048;-68
2023/03/07 11:14:20;;;;;;;6.63;3.10;;;;;;;5.48;66.26;97295.38;4931008;28;20036;-69
2023/03/07 11:16:56;;;;;;;7.50;3.67;;;;;;;5.52;66.82;97300.31;4921665;28;20411;-69
2023/03/07 11:19:41;;;;;;;8.25;3.60;;;;;;;5.45;65.63;97290.44;4928055;28;20098;-69
2023/03/07 11:22:27;;;;;;;11.35;3.47;;;;;;;5.44;65.17;97282.59;4927771;29;20047;-67
2023/03/07 11:24:58;;;;;;;6.88;3.30;;;;;;;5.44;66.26;97278.03;4947465;28;20045;-68
2023/03/07 11:27:31;;;;;;;10.05;3.30;;;;;;;5.51;65.27;97258.44;4927457;28;20043;-68
2023/03/07 11:30:28;;;;;;;6.95;3.03;;;;;;;5.76;64.38;97269.31;4933613;28;20031;-69
2023/03/07 11:32:59;;;;;;;7.45;3.88;;;;;;;5.61;64.21;97269.56;4957824;28;20023;-69
2023/03/07 11:35:51;;;;;;;6.68;3.45;;;;;;;5.68;65.14;97260.44;4939879;28;20046;-69
2023/03/07 11:38:29;;;;;;;6.97;3.63;;;;;;;5.83;63.70;97249.47;4932298;29;20028;-69
2023/03/07 11:41:18;;;;;;;8.50;3.65;;;;;;;5.86;63.90;97257.09;4934227;28;20043;-69
2023/03/07 11:44:05;;;;;;;5.93;3.13;;;;;;;5.90;63.97;97252.16;4934114;29;20027;-69
2023/03/07 11:46:46;;;;;;;11.38;3.70;;;;;;;5.95;63.86;97249.69;4927245;28;20036;-68
2023/03/07 11:49:34;;;;;;;13.75;3.50;;;;;;;6.42;63.83;97249.47;4953826;28;20032;-69
2023/03/07 11:52:33;;;;;;;6.63;3.20;;;;;;;6.62;63.38;97241.28;4924022;29;20028;-69